createdAt,value
2018-05-18T00:00:58.422Z,27.97
2018-05-18T00:05:51.719Z,30.97
2018-05-18T00:10:45.041Z,41.73
2018-05-18T00:15:38.365Z,34.07
2018-05-18T00:20:31.687Z,25.20
2018-05-18T00:25:25.779Z,25.93
2018-05-18T00:30:19.832Z,24.73
2018-05-18T00:35:13.130Z,43.27
2018-05-18T00:40:06.444Z,50.00
2018-05-18T00:44:59.747Z,53.23
2018-05-18T00:49:53.815Z,50.60
2018-05-18T00:54:47.880Z,53.60
2018-05-18T00:59:41.176Z,57.03
2018-05-18T01:04:35.272Z,45.03
2018-05-18T01:09:29.340Z,47.07
2018-05-18T01:14:22.644Z,55.83
2018-05-18T01:19:16.776Z,44.30
2018-05-18T01:24:10.076Z,41.70
2018-05-18T01:29:03.384Z,49.73
2018-05-18T01:33:56.691Z,44.43
2018-05-18T01:38:50.017Z,41.93
2018-05-18T01:43:43.326Z,46.13
2018-05-18T01:48:37.446Z,68.20
2018-05-18T01:53:31.486Z,56.97
2018-05-18T01:58:24.783Z,113.67
2018-05-18T02:03:18.877Z,39.97
2018-05-18T02:08:12.178Z,34.60
2018-05-18T02:13:05.479Z,61.47
2018-05-18T02:17:58.778Z,48.43
2018-05-18T02:22:52.106Z,38.60
2018-05-18T02:27:45.417Z,36.63
2018-05-18T02:32:38.713Z,44.63
2018-05-18T02:37:32.027Z,42.47
2018-05-18T02:42:26.110Z,34.00
2018-05-18T02:47:19.418Z,41.87
2018-05-18T02:52:12.720Z,35.70
2018-05-18T02:57:06.014Z,36.17
2018-05-18T03:01:59.390Z,34.57
2018-05-18T03:06:52.641Z,40.63
2018-05-18T03:11:45.933Z,44.07
2018-05-18T03:16:39.238Z,38.87
2018-05-18T03:21:32.518Z,35.33
2018-05-18T03:26:25.815Z,35.17
2018-05-18T03:31:19.869Z,46.73
2018-05-18T03:36:13.187Z,45.70
2018-05-18T03:41:07.264Z,50.37
2018-05-18T03:46:00.928Z,54.60
2018-05-18T03:50:54.219Z,58.13
2018-05-18T03:55:47.527Z,64.83
2018-05-18T04:00:41.574Z,56.93
2018-05-18T04:05:52.502Z,59.20
2018-05-18T04:10:46.603Z,71.47
2018-05-18T04:15:40.663Z,64.47
2018-05-18T04:20:33.977Z,60.97
2018-05-18T04:25:28.011Z,57.97
2018-05-18T04:30:21.379Z,54.23
2018-05-18T04:35:14.619Z,68.17
2018-05-18T04:40:08.679Z,60.07
2018-05-18T04:45:01.992Z,64.23
2018-05-18T04:49:56.060Z,54.43
2018-05-18T04:54:49.366Z,51.10
2018-05-18T04:59:43.428Z,65.13
2018-05-18T05:04:36.734Z,67.47
2018-05-18T05:09:30.798Z,67.13
2018-05-18T05:14:24.115Z,64.57
2018-05-18T05:19:18.175Z,58.57
2018-05-18T05:24:11.473Z,63.80
2018-05-18T05:29:04.758Z,60.30
2018-05-18T05:33:58.058Z,63.43
2018-05-18T05:38:51.345Z,62.97
2018-05-18T05:43:45.412Z,60.17
2018-05-18T05:48:39.480Z,63.03
2018-05-18T05:53:34.016Z,55.17
2018-05-18T05:58:27.379Z,55.23
2018-05-18T06:03:20.607Z,47.90
2018-05-18T06:08:13.905Z,50.73
2018-05-18T06:13:07.238Z,44.00
2018-05-18T06:18:00.535Z,50.50
2018-05-18T06:22:53.823Z,53.63
2018-05-18T06:27:47.133Z,56.23
2018-05-18T06:32:41.193Z,50.23
2018-05-18T06:37:34.508Z,51.73
2018-05-18T06:42:28.567Z,41.37
2018-05-18T06:47:21.867Z,43.93
2018-05-18T06:52:15.163Z,41.87
2018-05-18T06:57:08.527Z,35.60
2018-05-18T07:02:02.586Z,38.83
2018-05-18T07:06:55.888Z,38.40
2018-05-18T07:11:49.217Z,41.67
2018-05-18T07:16:42.488Z,48.43
2018-05-18T07:21:35.799Z,42.80
2018-05-18T07:26:29.362Z,38.40
2018-05-18T07:31:22.679Z,40.77
2018-05-18T07:36:16.077Z,35.73
2018-05-18T07:41:09.384Z,41.70
2018-05-18T07:46:02.696Z,41.40
2018-05-18T07:50:56.003Z,40.20
2018-05-18T07:55:50.920Z,46.90
2018-05-18T08:00:44.249Z,43.77
2018-05-18T08:05:37.565Z,40.13
2018-05-18T08:10:30.867Z,39.17
2018-05-18T08:15:24.175Z,43.50
2018-05-18T08:20:17.473Z,38.63
2018-05-18T08:25:10.787Z,41.57
2018-05-18T08:30:04.111Z,42.50
2018-05-18T08:34:59.051Z,34.77
2018-05-18T08:39:52.384Z,35.87
2018-05-18T08:44:45.704Z,42.27
2018-05-18T08:49:39.019Z,36.47
2018-05-18T08:54:32.355Z,41.77
2018-05-18T08:59:25.668Z,41.37
2018-05-18T09:04:19.027Z,40.63
2018-05-18T09:09:12.394Z,40.60
2018-05-18T09:14:05.704Z,35.47
2018-05-18T09:18:59.777Z,42.73
2018-05-18T09:23:53.082Z,42.37
2018-05-18T09:28:46.670Z,36.90
2018-05-18T09:33:40.774Z,41.53
2018-05-18T09:38:34.083Z,37.20
2018-05-18T09:43:27.390Z,35.90
2018-05-18T09:48:20.700Z,35.87
2018-05-18T09:53:14.029Z,36.23
2018-05-18T09:58:07.354Z,36.77
2018-05-18T10:03:00.663Z,35.27
2018-05-18T10:07:53.991Z,36.00
2018-05-18T10:12:47.288Z,37.07
2018-05-18T10:17:40.595Z,33.70
2018-05-18T10:22:33.913Z,37.53
2018-05-18T10:27:28.004Z,37.60
2018-05-18T10:32:22.082Z,33.63
2018-05-18T10:37:15.382Z,29.07
2018-05-18T10:42:09.470Z,34.83
2018-05-18T10:47:03.520Z,27.37
2018-05-18T10:51:56.852Z,27.17
2018-05-18T10:56:50.925Z,24.17
2018-05-18T11:01:44.215Z,23.27
2018-05-18T11:06:37.519Z,21.63
2018-05-18T11:11:30.823Z,17.20
2018-05-18T11:16:24.129Z,18.20
2018-05-18T11:21:17.434Z,18.03
2018-05-18T11:26:11.954Z,18.17
2018-05-18T11:31:05.171Z,20.57
2018-05-18T11:35:58.493Z,18.63
2018-05-18T11:40:51.794Z,18.80
2018-05-18T11:45:45.088Z,19.47
2018-05-18T11:50:38.388Z,20.03
2018-05-18T11:55:31.692Z,22.00
2018-05-18T12:00:24.987Z,23.20
2018-05-18T12:05:18.283Z,18.60
2018-05-18T12:10:12.936Z,19.60
2018-05-18T12:15:06.248Z,21.50
2018-05-18T12:20:00.297Z,18.87
2018-05-18T12:24:53.597Z,18.27
2018-05-18T12:29:46.908Z,16.00
2018-05-18T12:34:40.269Z,16.93
2018-05-18T12:44:40.834Z,17.60
2018-05-18T12:49:40.338Z,15.87
2018-05-18T12:54:34.383Z,10.27
2018-05-18T12:59:27.788Z,8.70
2018-05-18T13:04:21.009Z,8.40
2018-05-18T13:09:15.199Z,10.93
2018-05-18T13:14:09.286Z,8.93
2018-05-18T13:19:02.577Z,9.03
2018-05-18T13:23:56.852Z,7.93
2018-05-18T13:28:50.156Z,10.30
2018-05-18T13:33:44.211Z,9.50
2018-05-18T13:38:37.518Z,7.83
2018-05-18T13:43:30.840Z,14.90
2018-05-18T13:48:24.227Z,9.80
2018-05-18T13:53:17.495Z,11.50
2018-05-18T13:58:10.789Z,12.63
2018-05-18T14:03:04.102Z,9.77
2018-05-18T14:07:57.405Z,9.60
2018-05-18T14:12:50.695Z,8.70
2018-05-18T14:17:43.997Z,10.43
2018-05-18T14:22:38.103Z,10.63
2018-05-18T14:27:32.191Z,9.87
2018-05-18T14:32:25.483Z,7.90
2018-05-18T14:37:18.783Z,11.50
2018-05-18T14:42:12.089Z,9.57
2018-05-18T14:47:05.410Z,8.53
2018-05-18T14:51:58.711Z,8.83
2018-05-18T14:56:52.009Z,10.23
2018-05-18T15:01:46.077Z,10.80
2018-05-18T15:06:39.344Z,10.83
2018-05-18T15:11:32.649Z,8.57
2018-05-18T15:16:26.813Z,8.97
2018-05-18T15:21:20.821Z,11.73
2018-05-18T15:26:14.130Z,8.00
2018-05-18T15:31:08.184Z,10.87
2018-05-18T15:36:01.482Z,8.73
2018-05-18T15:40:54.783Z,7.40
2018-05-18T15:45:48.186Z,7.73
2018-05-18T15:50:41.497Z,11.47
2018-05-18T15:55:34.793Z,7.93
2018-05-18T16:00:28.938Z,10.70
2018-05-18T16:05:22.296Z,13.67
2018-05-18T16:10:15.616Z,14.23
2018-05-18T16:15:09.280Z,11.63
2018-05-18T16:20:02.589Z,9.87
2018-05-18T16:24:55.905Z,7.60
2018-05-18T16:29:49.976Z,7.87
2018-05-18T16:34:44.036Z,11.07
2018-05-18T16:39:37.334Z,9.83
2018-05-18T16:44:30.624Z,9.37
2018-05-18T16:49:23.959Z,11.13
2018-05-18T16:54:17.272Z,8.20
2018-05-18T16:59:10.584Z,9.77
2018-05-18T17:04:03.865Z,6.97
2018-05-18T17:08:57.175Z,9.30
2018-05-18T17:13:50.487Z,8.40
2018-05-18T17:18:44.587Z,6.13
2018-05-18T17:23:37.899Z,7.93
2018-05-18T17:28:31.195Z,10.23
2018-05-18T17:33:24.514Z,10.03
2018-05-18T17:38:18.565Z,7.07
2018-05-18T17:43:11.851Z,9.37
2018-05-18T17:48:05.170Z,10.47
2018-05-18T17:52:59.233Z,7.67
2018-05-18T17:57:52.533Z,11.40
2018-05-18T18:02:46.587Z,11.70
2018-05-18T18:07:39.889Z,7.30
2018-05-18T18:12:33.187Z,8.13
2018-05-18T18:17:27.239Z,9.30
2018-05-18T18:22:20.627Z,8.90
2018-05-18T18:27:14.639Z,8.57
2018-05-18T18:32:07.942Z,12.17
2018-05-18T18:41:59.467Z,8.57
2018-05-18T18:46:52.782Z,10.27
2018-05-18T18:51:46.848Z,9.70
2018-05-18T18:56:40.144Z,9.93
2018-05-18T19:01:33.523Z,10.20
2018-05-18T19:06:27.587Z,9.53
2018-05-18T19:11:20.925Z,12.83
2018-05-18T19:16:14.226Z,8.63
2018-05-18T19:21:08.356Z,9.10
2018-05-18T19:26:01.665Z,9.43
2018-05-18T19:30:56.206Z,9.67
2018-05-18T19:35:49.507Z,10.43
2018-05-18T19:40:42.805Z,9.37
2018-05-18T19:45:36.158Z,9.53
2018-05-18T19:50:29.457Z,9.00
2018-05-18T19:55:23.515Z,10.53
2018-05-18T20:00:16.828Z,12.33
2018-05-18T20:05:10.927Z,11.67
2018-05-18T20:10:05.005Z,11.23
2018-05-18T20:14:58.311Z,13.23
2018-05-18T20:19:52.465Z,13.00
2018-05-18T20:24:46.498Z,15.63
2018-05-18T20:29:40.590Z,11.87
2018-05-18T20:34:34.667Z,17.90
2018-05-18T20:39:27.994Z,12.50
2018-05-18T20:44:22.072Z,13.70
2018-05-18T20:49:15.421Z,11.97
2018-05-18T20:54:09.502Z,13.43
2018-05-18T20:59:02.826Z,13.23
2018-05-18T21:03:56.132Z,13.87
2018-05-18T21:08:49.430Z,13.07
2018-05-18T21:13:42.735Z,14.27
2018-05-18T21:18:36.803Z,13.97
2018-05-18T21:23:30.691Z,16.47
2018-05-18T21:28:24.002Z,14.80
2018-05-18T21:33:18.074Z,14.27
2018-05-18T21:38:11.377Z,14.57
2018-05-18T21:43:05.451Z,13.70
2018-05-18T21:47:58.753Z,15.17
2018-05-18T21:52:52.816Z,13.27
2018-05-18T21:57:46.122Z,14.17
2018-05-18T22:02:40.227Z,13.30
2018-05-18T22:07:33.523Z,14.63
2018-05-18T22:12:26.867Z,22.07
2018-05-18T22:17:20.934Z,13.80
2018-05-18T22:22:14.296Z,13.43
2018-05-18T22:27:07.623Z,15.23
2018-05-18T22:32:01.708Z,13.40
2018-05-18T22:36:55.783Z,12.33
2018-05-18T22:41:49.083Z,13.30
2018-05-18T22:46:42.399Z,13.30
2018-05-18T22:51:35.733Z,13.87
2018-05-18T22:56:29.787Z,12.83
2018-05-18T23:01:23.079Z,12.70
2018-05-18T23:06:16.402Z,13.57
2018-05-18T23:11:09.703Z,16.03
2018-05-18T23:16:02.972Z,16.20
2018-05-18T23:20:56.266Z,13.27
2018-05-18T23:25:49.641Z,18.83
2018-05-18T23:30:42.909Z,13.20
2018-05-18T23:35:36.223Z,15.70
2018-05-18T23:40:29.553Z,15.23
2018-05-18T23:45:22.855Z,13.57
2018-05-18T23:50:17.030Z,16.47
2018-05-18T23:55:10.323Z,14.40
